Time;durP1;ratioP1;P1;durP2;ratioP2;P2;SDS_P1;SDS_P2;PMS_P1;PMS_P2;Temp;Humidity;BMP_temperature;BMP_pressure;BME280_temperature;BME280_humidity;BME280_pressure;Samples;Min_cycle;Max_cycle;Signal;HPM_P1;HPM_P2
2023/08/16 00:01:30;;;;;;;6.65;3.20;;;22.80;99.90;;;;;;5067945;28;20028;-72
2023/08/16 00:03:56;;;;;;;5.35;3.17;;;22.90;99.90;;;;;;5073043;28;20032;-71
2023/08/16 00:06:21;;;;;;;4.45;2.67;;;23.00;99.90;;;;;;5067052;28;20090;-72
2023/08/16 00:08:47;;;;;;;5.35;2.90;;;23.00;99.90;;;;;;5061564;28;20111;-72
2023/08/16 00:11:13;;;;;;;4.97;2.65;;;23.00;99.90;;;;;;5067729;28;20092;-72
2023/08/16 00:13:38;;;;;;;5.45;3.45;;;23.00;99.90;;;;;;5073283;28;20151;-71
2023/08/16 00:16:05;;;;;;;6.75;2.78;;;23.00;99.90;;;;;;5069020;28;20059;-71
2023/08/16 00:18:31;;;;;;;5.10;2.33;;;23.10;99.90;;;;;;5073152;28;20392;-71
2023/08/16 00:20:58;;;;;;;3.53;2.60;;;23.10;99.90;;;;;;5060285;28;20090;-72
2023/08/16 00:23:23;;;;;;;4.80;2.70;;;23.10;99.90;;;;;;5072835;28;20045;-71
2023/08/16 00:25:49;;;;;;;5.03;2.50;;;23.10;99.90;;;;;;5069137;28;20443;-71
2023/08/16 00:28:15;;;;;;;4.95;3.10;;;23.10;99.90;;;;;;5062958;28;20409;-72
2023/08/16 00:30:40;;;;;;;5.82;3.00;;;23.10;99.90;;;;;;5067184;28;20036;-71
2023/08/16 00:33:06;;;;;;;7.63;2.97;;;23.10;99.90;;;;;;5071518;28;20052;-71
2023/08/16 00:35:32;;;;;;;5.43;2.85;;;23.10;99.90;;;;;;5067957;28;20036;-71
2023/08/16 00:37:58;;;;;;;7.03;3.33;;;23.20;99.90;;;;;;5071139;28;20369;-71
2023/08/16 00:40:24;;;;;;;5.25;3.03;;;23.20;99.90;;;;;;5060567;28;20654;-72
2023/08/16 00:42:49;;;;;;;5.95;2.80;;;23.10;99.90;;;;;;5071713;28;20031;-72
2023/08/16 00:45:15;;;;;;;8.70;3.53;;;23.20;99.90;;;;;;5065057;28;20033;-72
2023/08/16 00:47:42;;;;;;;4.72;2.78;;;23.20;99.90;;;;;;5062813;28;20481;-71
2023/08/16 00:50:08;;;;;;;6.68;3.03;;;23.20;99.90;;;;;;5066473;28;20088;-72
2023/08/16 00:52:34;;;;;;;5.15;3.03;;;23.20;99.90;;;;;;5070774;28;20480;-71
2023/08/16 00:55:02;;;;;;;5.90;3.38;;;23.20;99.90;;;;;;5065955;28;20033;-72
2023/08/16 00:57:29;;;;;;;4.40;2.70;;;23.20;99.90;;;;;;5070197;28;20074;-72
2023/08/16 00:59:55;;;;;;;6.32;3.03;;;23.30;99.90;;;;;;5066445;28;20497;-72
2023/08/16 01:02:21;;;;;;;4.60;3.00;;;23.30;99.90;;;;;;5070598;28;20051;-72
2023/08/16 01:04:47;;;;;;;6.80;3.05;;;23.20;99.90;;;;;;5066780;28;20496;-72
2023/08/16 01:07:12;;;;;;;6.78;3.00;;;23.20;99.90;;;;;;5070189;28;20183;-71
2023/08/16 01:09:38;;;;;;;5.25;2.80;;;23.30;99.90;;;;;;5065716;28;20044;-71
2023/08/16 01:12:23;;;;;;;4.80;2.97;;;23.20;99.90;;;;;;5070625;28;20017;-72
2023/08/16 01:14:49;;;;;;;4.78;2.72;;;23.30;99.90;;;;;;5070147;28;20028;-72
2023/08/16 01:17:16;;;;;;;4.88;2.85;;;23.30;99.90;;;;;;5068023;28;20025;-72
2023/08/16 01:19:42;;;;;;;6.63;2.85;;;23.30;99.90;;;;;;5070770;28;20027;-72
2023/08/16 01:22:23;;;;;;;5.68;2.72;;;23.30;99.90;;;;;;5061724;28;20033;-72
2023/08/16 01:25:08;;;;;;;;;;;23.40;99.90;;;;;;5051310;28;20072;-72
2023/08/16 01:27:35;;;;;;;4.50;2.88;;;23.30;99.90;;;;;;5068072;28;20291;-72
2023/08/16 01:30:06;;;;;;;5.60;2.85;;;23.30;99.90;;;;;;5071103;28;20024;-72
2023/08/16 01:32:32;;;;;;;7.63;2.80;;;23.30;99.90;;;;;;5069572;28;20095;-71
2023/08/16 01:34:58;;;;;;;6.63;3.00;;;23.30;99.90;;;;;;5070724;28;20488;-72
2023/08/16 01:37:25;;;;;;;6.22;2.75;;;23.30;99.90;;;;;;5068295;28;20149;-71
2023/08/16 01:39:51;;;;;;;6.85;2.80;;;23.30;99.90;;;;;;5069271;28;20399;-72
2023/08/16 01:42:17;;;;;;;3.55;2.45;;;23.30;99.90;;;;;;5070266;28;20138;-72
2023/08/16 01:44:47;;;;;;;6.10;2.95;;;23.30;99.90;;;;;;5073119;28;20496;-72
2023/08/16 01:47:14;;;;;;;4.65;2.60;;;23.30;99.90;;;;;;5071195;28;20103;-72
2023/08/16 01:49:42;;;;;;;5.28;3.10;;;23.30;99.90;;;;;;5072490;28;20122;-72
2023/08/16 01:52:08;;;;;;;5.15;2.70;;;23.30;99.90;;;;;;5072835;28;20070;-72
2023/08/16 01:54:34;;;;;;;5.55;2.67;;;23.20;99.90;;;;;;5070968;28;20099;-72
2023/08/16 01:57:00;;;;;;;6.18;2.53;;;23.20;99.90;;;;;;5066967;28;20150;-71
2023/08/16 01:59:26;;;;;;;3.78;2.28;;;23.20;99.90;;;;;;5071853;28;20047;-72
2023/08/16 02:01:51;;;;;;;5.65;3.38;;;23.20;99.90;;;;;;5073104;28;20027;-72
2023/08/16 02:04:17;;;;;;;6.00;2.67;;;23.30;99.90;;;;;;5071783;28;20025;-72
2023/08/16 02:06:43;;;;;;;5.40;2.80;;;23.20;99.90;;;;;;5054327;28;20021;-72
2023/08/16 02:09:09;;;;;;;5.20;3.05;;;23.30;99.90;;;;;;5072216;28;20130;-72
2023/08/16 02:11:35;;;;;;;7.82;3.20;;;23.30;99.90;;;;;;5073464;28;20035;-72
2023/08/16 02:14:00;;;;;;;5.95;3.10;;;23.20;99.90;;;;;;5072103;28;20016;-72
2023/08/16 02:16:26;;;;;;;4.97;2.90;;;23.30;99.90;;;;;;5072659;28;20028;-72
2023/08/16 02:18:52;;;;;;;4.38;2.80;;;23.20;99.90;;;;;;5073873;28;20400;-72
2023/08/16 02:21:18;;;;;;;5.32;2.97;;;23.20;99.90;;;;;;5067451;28;20504;-72
2023/08/16 02:23:43;;;;;;;7.15;2.78;;;23.20;99.90;;;;;;5073667;28;20051;-71
2023/08/16 02:26:09;;;;;;;6.82;3.20;;;23.20;99.90;;;;;;5069883;28;20053;-72
2023/08/16 02:28:35;;;;;;;4.45;2.83;;;23.20;99.90;;;;;;5064373;28;20024;-72
2023/08/16 02:31:06;;;;;;;7.45;3.00;;;23.20;99.90;;;;;;5061557;28;20029;-71
2023/08/16 02:33:35;;;;;;;4.97;3.15;;;23.20;99.90;;;;;;5064205;28;20031;-72
2023/08/16 02:36:01;;;;;;;6.80;2.95;;;23.20;99.90;;;;;;5076708;28;20115;-72
2023/08/16 02:38:28;;;;;;;3.90;3.00;;;23.10;99.90;;;;;;5076608;28;20052;-72
2023/08/16 02:40:54;;;;;;;5.28;3.05;;;23.10;99.90;;;;;;5077742;28;20016;-72
2023/08/16 02:43:20;;;;;;;8.88;3.00;;;23.10;99.90;;;;;;5076498;28;20021;-72
2023/08/16 02:45:46;;;;;;;5.53;3.08;;;23.10;99.90;;;;;;5076301;28;20040;-72
2023/08/16 02:48:11;;;;;;;6.35;2.85;;;23.00;99.90;;;;;;5076663;28;20031;-72
2023/08/16 02:50:37;;;;;;;5.03;2.55;;;23.00;99.90;;;;;;5077674;28;20024;-72
2023/08/16 02:53:03;;;;;;;4.05;2.65;;;22.90;99.90;;;;;;5066780;28;20018;-71
2023/08/16 02:55:29;;;;;;;9.95;3.20;;;22.90;99.90;;;;;;5067011;28;20034;-72
2023/08/16 02:57:55;;;;;;;7.50;3.28;;;22.80;99.90;;;;;;5066463;28;20036;-72
2023/08/16 03:00:21;;;;;;;7.13;2.92;;;22.70;99.90;;;;;;5066909;28;20024;-72
2023/08/16 03:02:47;;;;;;;4.22;2.90;;;22.60;99.90;;;;;;5058400;28;20032;-72
2023/08/16 03:05:12;;;;;;;4.78;2.90;;;22.60;99.90;;;;;;5065748;28;20063;-71
2023/08/16 03:07:39;;;;;;;4.05;2.92;;;22.50;99.90;;;;;;5066933;28;20074;-71
2023/08/16 03:10:05;;;;;;;4.97;3.15;;;22.50;99.90;;;;;;5066588;28;20110;-72
2023/08/16 03:12:31;;;;;;;4.38;3.65;;;22.40;99.90;;;;;;5065678;28;20036;-72
2023/08/16 03:14:57;;;;;;;8.25;4.15;;;22.30;99.90;;;;;;5066220;28;20026;-72
2023/08/16 03:17:23;;;;;;;7.25;3.47;;;22.20;99.90;;;;;;5064872;28;20033;-72
2023/08/16 03:19:49;;;;;;;6.50;3.97;;;22.20;99.90;;;;;;5063811;28;20044;-71
2023/08/16 03:22:15;;;;;;;5.38;3.80;;;22.20;99.90;;;;;;5055244;28;20024;-72
2023/08/16 03:24:40;;;;;;;11.63;3.88;;;22.00;99.90;;;;;;5065891;28;20075;-72
2023/08/16 03:27:06;;;;;;;5.13;3.72;;;21.90;99.90;;;;;;5064765;28;20025;-72
2023/08/16 03:29:32;;;;;;;5.30;3.60;;;22.00;99.90;;;;;;5063426;28;20126;-72
2023/08/16 03:31:57;;;;;;;6.35;3.70;;;21.90;99.90;;;;;;5064982;28;20032;-72
2023/08/16 03:34:24;;;;;;;6.40;3.67;;;21.90;99.90;;;;;;5062199;28;20032;-72
2023/08/16 03:36:49;;;;;;;4.70;3.45;;;21.80;99.90;;;;;;5065236;28;20104;-72
2023/08/16 03:39:15;;;;;;;8.77;3.97;;;21.80;99.90;;;;;;5063728;28;20045;-72
2023/08/16 03:41:41;;;;;;;6.28;3.42;;;21.80;99.90;;;;;;5063770;28;20032;-72
2023/08/16 03:44:06;;;;;;;6.32;4.10;;;21.70;99.90;;;;;;5063238;28;20033;-72
2023/08/16 03:46:33;;;;;;;4.75;3.55;;;21.70;99.90;;;;;;5064909;28;20085;-72
2023/08/16 03:48:59;;;;;;;5.00;3.65;;;21.70;99.90;;;;;;5063838;28;20021;-72
2023/08/16 03:51:25;;;;;;;8.32;4.18;;;21.80;99.90;;;;;;5063410;28;20116;-72
2023/08/16 03:53:50;;;;;;;8.07;3.97;;;21.80;99.90;;;;;;5063767;28;20801;-72
2023/08/16 03:56:16;;;;;;;8.30;3.45;;;21.80;99.90;;;;;;5064577;28;20096;-72
2023/08/16 03:58:42;;;;;;;7.55;3.80;;;21.90;99.90;;;;;;5061423;28;20604;-71
2023/08/16 04:01:07;;;;;;;8.73;3.83;;;22.00;99.90;;;;;;5064230;28;20048;-71
2023/08/16 04:03:33;;;;;;;5.85;3.60;;;21.90;99.90;;;;;;5063117;28;20164;-71
2023/08/16 04:05:58;;;;;;;5.93;3.75;;;22.00;99.90;;;;;;5064167;28;20570;-71
2023/08/16 04:08:24;;;;;;;6.00;3.97;;;22.00;99.90;;;;;;5062618;28;20017;-71
2023/08/16 04:10:50;;;;;;;4.90;3.55;;;22.00;99.90;;;;;;5064865;28;20048;-71
2023/08/16 04:13:16;;;;;;;6.55;4.07;;;22.10;99.90;;;;;;5063224;28;20083;-71
2023/08/16 04:15:41;;;;;;;7.50;4.18;;;22.00;99.90;;;;;;5064798;28;20033;-71
2023/08/16 04:18:08;;;;;;;8.07;4.57;;;22.00;99.90;;;;;;5063226;28;20021;-71
2023/08/16 04:20:33;;;;;;;5.70;4.18;;;22.10;99.90;;;;;;5058177;28;20065;-71
2023/08/16 04:22:59;;;;;;;8.18;4.05;;;22.10;99.90;;;;;;5056232;28;20028;-71
2023/08/16 04:25:25;;;;;;;8.30;4.10;;;22.10;99.90;;;;;;5063169;28;20036;-71
2023/08/16 04:27:51;;;;;;;5.90;4.07;;;22.10;99.90;;;;;;5061840;28;20021;-71
2023/08/16 04:30:17;;;;;;;7.15;4.30;;;22.20;99.90;;;;;;5064491;28;20083;-71
2023/08/16 04:32:42;;;;;;;5.60;3.92;;;22.20;99.90;;;;;;5061554;28;20143;-71
2023/08/16 04:35:08;;;;;;;6.85;3.60;;;22.10;99.90;;;;;;5065183;28;20028;-71
2023/08/16 04:37:34;;;;;;;6.95;4.65;;;22.20;99.90;;;;;;5062108;28;20021;-71
2023/08/16 04:40:00;;;;;;;7.45;4.85;;;22.10;99.90;;;;;;5065292;28;20020;-72
2023/08/16 04:42:26;;;;;;;7.95;4.32;;;22.10;99.90;;;;;;5061967;28;20053;-71
2023/08/16 04:44:51;;;;;;;6.55;4.20;;;22.10;99.90;;;;;;5063634;28;20064;-72
2023/08/16 04:47:17;;;;;;;5.13;3.50;;;22.20;99.90;;;;;;5060935;28;20021;-71
2023/08/16 04:49:43;;;;;;;4.65;4.13;;;22.20;99.90;;;;;;5065597;28;20032;-72
2023/08/16 04:52:08;;;;;;;8.25;4.00;;;22.10;99.90;;;;;;5075144;28;20031;-71
2023/08/16 04:54:34;;;;;;;5.50;3.90;;;22.10;99.90;;;;;;5070982;28;20056;-71
2023/08/16 04:57:00;;;;;;;5.25;3.35;;;22.10;99.90;;;;;;5068137;28;20024;-71
2023/08/16 04:59:25;;;;;;;13.02;4.45;;;22.10;99.90;;;;;;5059776;28;20034;-72
2023/08/16 05:01:51;;;;;;;5.00;3.53;;;22.10;99.90;;;;;;5054326;28;20025;-74
2023/08/16 05:04:17;;;;;;;5.50;4.00;;;22.10;99.90;;;;;;5056528;28;20166;-74
2023/08/16 05:06:42;;;;;;;7.38;3.95;;;22.00;99.90;;;;;;5058664;28;20020;-74
2023/08/16 05:09:08;;;;;;;7.00;4.13;;;21.90;99.90;;;;;;5062560;28;20029;-74
2023/08/16 05:11:35;;;;;;;6.40;3.60;;;21.90;99.90;;;;;;5070952;28;20048;-74
2023/08/16 05:14:01;;;;;;;7.93;3.97;;;21.90;99.90;;;;;;5069849;28;20031;-74
2023/08/16 05:16:26;;;;;;;5.68;4.35;;;22.00;99.90;;;;;;5064911;28;20064;-74
2023/08/16 05:18:57;;;;;;;6.57;3.88;;;22.00;99.90;;;;;;5062280;28;20433;-74
2023/08/16 05:21:23;;;;;;;5.10;4.05;;;21.90;99.90;;;;;;5065266;28;20016;-74
2023/08/16 05:23:48;;;;;;;10.52;4.18;;;21.90;99.90;;;;;;5067434;28;20064;-74
2023/08/16 05:26:14;;;;;;;5.60;3.97;;;21.90;99.90;;;;;;5058282;28;20025;-74
2023/08/16 05:28:40;;;;;;;6.90;3.85;;;21.80;99.90;;;;;;5062109;28;20049;-74
2023/08/16 05:31:09;;;;;;;6.13;3.75;;;21.70;99.90;;;;;;5058722;28;20025;-74
2023/08/16 05:33:36;;;;;;;6.85;4.32;;;21.80;99.90;;;;;;5063083;28;20031;-74
2023/08/16 05:36:01;;;;;;;5.32;4.30;;;21.80;99.90;;;;;;5073737;28;20089;-75
2023/08/16 05:38:27;;;;;;;8.57;4.78;;;21.80;99.90;;;;;;5072470;28;20029;-74
2023/08/16 05:40:53;;;;;;;8.18;4.20;;;21.80;99.90;;;;;;5073844;28;20070;-75
2023/08/16 05:43:19;;;;;;;6.38;4.43;;;21.90;99.90;;;;;;5073302;28;20035;-74
2023/08/16 05:45:44;;;;;;;6.85;4.05;;;21.90;99.90;;;;;;5074446;28;20091;-75
2023/08/16 05:48:10;;;;;;;6.38;4.03;;;21.90;99.90;;;;;;5068021;28;20038;-74
2023/08/16 05:50:36;;;;;;;8.02;4.32;;;21.90;99.90;;;;;;5072027;28;20074;-74
2023/08/16 05:53:03;;;;;;;9.73;4.75;;;22.00;99.90;;;;;;5068870;28;20032;-74
2023/08/16 05:55:28;;;;;;;8.48;4.97;;;22.00;99.90;;;;;;5072399;28;20081;-75
2023/08/16 05:57:54;;;;;;;5.68;4.22;;;22.00;99.90;;;;;;5065635;28;20120;-74
2023/08/16 06:00:20;;;;;;;5.97;3.92;;;22.00;99.90;;;;;;5063571;28;20021;-74
2023/08/16 06:02:46;;;;;;;6.75;4.22;;;22.10;99.90;;;;;;5065165;28;20088;-74
2023/08/16 06:05:11;;;;;;;4.80;3.95;;;22.10;99.90;;;;;;5073117;28;20064;-74
2023/08/16 06:07:37;;;;;;;8.68;4.50;;;22.20;99.90;;;;;;5060714;28;20033;-74
2023/08/16 06:10:04;;;;;;;5.60;3.92;;;22.20;99.90;;;;;;5055945;28;20027;-74
2023/08/16 06:12:30;;;;;;;5.25;4.13;;;22.20;99.90;;;;;;5060195;28;20024;-74
2023/08/16 06:14:56;;;;;;;5.05;3.83;;;22.20;99.90;;;;;;5067207;28;20020;-74
2023/08/16 06:17:21;;;;;;;6.75;4.43;;;22.30;99.90;;;;;;5072656;28;20033;-73
2023/08/16 06:19:47;;;;;;;8.73;4.25;;;22.30;99.90;;;;;;5073625;28;20036;-73
2023/08/16 06:22:13;;;;;;;7.88;4.43;;;22.30;99.90;;;;;;5068630;28;20416;-73
2023/08/16 06:24:38;;;;;;;5.90;3.90;;;22.40;99.90;;;;;;5073852;28;20044;-73
2023/08/16 06:27:04;;;;;;;5.25;4.10;;;22.40;99.90;;;;;;5062679;28;20493;-73
2023/08/16 06:29:30;;;;;;;9.30;4.75;;;22.40;99.90;;;;;;5066846;28;20028;-73
2023/08/16 06:31:56;;;;;;;17.05;7.30;;;22.50;99.90;;;;;;5070748;28;20036;-73
2023/08/16 06:34:22;;;;;;;7.07;4.75;;;22.40;99.90;;;;;;5066240;28;20096;-73
2023/08/16 06:36:47;;;;;;;9.77;4.80;;;22.40;99.90;;;;;;5067558;28;20043;-73
2023/08/16 06:39:13;;;;;;;6.97;3.83;;;22.40;99.90;;;;;;5067457;28;20025;-73
2023/08/16 06:41:39;;;;;;;9.45;4.75;;;22.50;99.90;;;;;;5072963;28;20064;-73
2023/08/16 06:44:05;;;;;;;8.23;4.85;;;22.50;99.90;;;;;;5075857;28;20073;-73
2023/08/16 06:46:31;;;;;;;10.07;4.03;;;22.50;99.90;;;;;;5068366;28;20025;-73
2023/08/16 06:48:57;;;;;;;12.90;4.15;;;22.60;99.90;;;;;;5072822;28;20088;-73
2023/08/16 06:51:23;;;;;;;9.27;4.28;;;22.70;99.90;;;;;;5075173;28;20056;-73
2023/08/16 06:53:50;;;;;;;8.60;4.72;;;22.80;99.90;;;;;;5076743;28;20035;-73
2023/08/16 06:56:16;;;;;;;8.73;4.20;;;23.00;99.90;;;;;;5074516;28;20078;-73
2023/08/16 06:58:42;;;;;;;8.85;4.63;;;23.10;99.90;;;;;;5073202;28;20021;-73
2023/08/16 07:01:08;;;;;;;10.98;5.40;;;23.20;99.90;;;;;;5070112;28;20028;-73
2023/08/16 07:03:34;;;;;;;8.60;4.53;;;23.20;99.90;;;;;;5058306;28;20024;-73
2023/08/16 07:06:00;;;;;;;6.57;4.85;;;23.30;99.90;;;;;;5069664;28;20031;-73
2023/08/16 07:08:26;;;;;;;7.78;5.03;;;23.40;99.90;;;;;;5061227;28;20099;-74
2023/08/16 07:10:52;;;;;;;6.30;3.90;;;23.50;99.90;;;;;;5064666;28;20021;-75
2023/08/16 07:13:18;;;;;;;9.05;4.35;;;23.70;99.90;;;;;;5073663;28;20061;-74
2023/08/16 07:15:44;;;;;;;7.07;4.18;;;23.70;99.90;;;;;;5066544;28;20037;-75
2023/08/16 07:18:09;;;;;;;6.25;4.03;;;23.80;99.90;;;;;;5062217;28;20036;-74
2023/08/16 07:20:35;;;;;;;11.95;5.55;;;23.90;99.90;;;;;;5059815;28;20028;-74
2023/08/16 07:23:01;;;;;;;5.57;3.70;;;23.90;99.90;;;;;;5067330;28;20055;-74
2023/08/16 07:25:27;;;;;;;6.93;3.92;;;24.10;99.90;;;;;;5066977;28;20081;-74
2023/08/16 07:27:53;;;;;;;8.05;3.63;;;24.20;99.90;;;;;;5066546;28;20032;-72
2023/08/16 07:30:18;;;;;;;5.60;3.88;;;24.40;99.90;;;;;;5067470;28;20029;-73
2023/08/16 07:32:44;;;;;;;6.35;3.92;;;24.60;99.90;;;;;;5060239;28;20109;-72
2023/08/16 07:35:10;;;;;;;6.13;3.65;;;24.70;99.90;;;;;;5062466;28;20052;-73
2023/08/16 07:37:36;;;;;;;7.03;4.00;;;24.80;99.90;;;;;;5062244;28;21074;-74
2023/08/16 07:40:04;;;;;;;5.88;3.70;;;24.80;99.90;;;;;;5064584;28;20059;-73
2023/08/16 07:42:30;;;;;;;8.15;3.85;;;24.90;99.90;;;;;;5061806;28;20060;-73
2023/08/16 07:44:57;;;;;;;8.73;4.18;;;24.90;99.90;;;;;;5063526;28;20025;-73
2023/08/16 07:47:23;;;;;;;6.28;3.30;;;25.00;99.90;;;;;;5064843;28;20436;-73
2023/08/16 07:49:49;;;;;;;5.30;3.15;;;25.20;99.90;;;;;;5064450;28;20021;-73
2023/08/16 07:52:14;;;;;;;4.93;3.17;;;25.20;99.90;;;;;;5056437;28;20036;-73
2023/08/16 07:54:40;;;;;;;6.80;3.08;;;25.30;99.90;;;;;;5063441;28;20033;-73
2023/08/16 07:57:06;;;;;;;4.90;3.35;;;25.10;99.90;;;;;;5064918;28;20028;-73
2023/08/16 07:59:32;;;;;;;7.00;3.28;;;25.10;99.90;;;;;;5066163;28;20504;-73
2023/08/16 08:01:57;;;;;;;6.05;3.67;;;25.10;99.90;;;;;;5064001;28;20021;-73
2023/08/16 08:04:23;;;;;;;4.75;2.72;;;25.20;99.90;;;;;;5062210;28;20052;-74
2023/08/16 08:06:49;;;;;;;4.40;2.97;;;25.10;99.90;;;;;;5058692;28;20048;-74
2023/08/16 08:09:14;;;;;;;5.35;2.55;;;25.00;99.90;;;;;;5060504;28;20560;-72
2023/08/16 08:11:40;;;;;;;5.32;2.95;;;25.00;99.90;;;;;;5058514;28;20047;-73
2023/08/16 08:14:06;;;;;;;4.40;2.72;;;25.20;99.90;;;;;;5056919;28;20547;-73
2023/08/16 08:16:32;;;;;;;3.47;2.58;;;25.40;99.90;;;;;;5058732;28;20057;-75
2023/08/16 08:18:58;;;;;;;5.25;3.00;;;25.60;99.90;;;;;;5059957;28;20029;-73
2023/08/16 08:21:23;;;;;;;6.88;2.88;;;25.70;99.90;;;;;;5069869;28;20392;-76
2023/08/16 08:23:49;;;;;;;5.00;2.65;;;25.70;99.90;;;;;;5066625;28;20049;-74
2023/08/16 08:26:16;;;;;;;9.50;3.40;;;25.50;99.90;;;;;;5069275;28;20173;-74
2023/08/16 08:28:42;;;;;;;7.25;3.53;;;25.50;99.90;;;;;;5067662;28;20082;-76
2023/08/16 08:31:08;;;;;;;8.48;3.58;;;25.60;99.90;;;;;;5069666;28;20021;-75
2023/08/16 08:33:33;;;;;;;6.32;2.92;;;25.60;99.90;;;;;;5067104;28;20029;-77
2023/08/16 08:35:59;;;;;;;3.80;2.95;;;25.70;99.90;;;;;;5069229;28;20051;-78
2023/08/16 08:38:25;;;;;;;5.65;2.65;;;25.90;99.90;;;;;;5068474;28;20118;-77
2023/08/16 08:40:58;;;;;;;6.13;3.28;;;25.90;99.90;;;;;;5070191;28;20407;-76
2023/08/16 08:43:34;;;;;;;6.78;3.15;;;26.00;99.90;;;;;;5067593;28;20082;-76
2023/08/16 08:46:00;;;;;;;6.53;3.38;;;26.10;99.90;;;;;;5052505;28;20021;-74
2023/08/16 08:48:30;;;;;;;6.53;3.42;;;26.30;99.90;;;;;;5051215;28;21706;-77
2023/08/16 08:50:57;;;;;;;7.13;3.72;;;26.40;99.90;;;;;;5052627;28;20484;-77
2023/08/16 08:53:24;;;;;;;6.97;3.35;;;26.60;99.90;;;;;;5055815;28;20496;-77
2023/08/16 08:55:54;;;;;;;5.70;3.75;;;26.70;99.90;;;;;;5057414;28;20427;-77
2023/08/16 08:58:21;;;;;;;5.72;3.45;;;26.80;99.90;;;;;;5056310;28;20116;-77
2023/08/16 09:00:49;;;;;;;7.35;3.60;;;26.80;99.90;;;;;;5057725;28;20029;-77
2023/08/16 09:03:18;;;;;;;5.63;3.55;;;26.70;99.90;;;;;;5053154;28;20036;-79
2023/08/16 09:05:52;;;;;;;8.43;3.60;;;26.70;99.90;;;;;;5059244;28;20569;-78
2023/08/16 09:08:20;;;;;;;5.28;4.43;;;26.60;99.90;;;;;;5055651;28;20513;-78
2023/08/16 09:10:46;;;;;;;8.32;3.50;;;26.70;99.90;;;;;;5054689;28;20590;-80
2023/08/16 09:13:12;;;;;;;6.55;3.88;;;26.80;99.90;;;;;;5057003;28;20040;-78
2023/08/16 09:15:39;;;;;;;8.68;4.30;;;26.90;99.90;;;;;;5036618;28;20084;-80
2023/08/16 09:18:12;;;;;;;6.32;4.15;;;27.10;99.90;;;;;;5052030;28;20056;-79
2023/08/16 09:20:39;;;;;;;7.60;4.60;;;27.60;99.90;;;;;;5052925;28;20036;-79
2023/08/16 09:23:06;;;;;;;5.70;3.70;;;28.00;99.90;;;;;;5055695;28;20127;-78
2023/08/16 09:25:31;;;;;;;5.97;3.30;;;28.30;99.90;;;;;;5056868;28;20021;-79
2023/08/16 09:27:58;;;;;;;5.78;4.13;;;28.40;99.90;;;;;;5054990;28;20074;-79
2023/08/16 09:30:27;;;;;;;6.97;3.22;;;28.60;99.90;;;;;;5054282;28;20021;-80
2023/08/16 09:32:54;;;;;;;4.85;3.50;;;28.60;99.90;;;;;;5053891;28;20021;-80
2023/08/16 09:35:26;;;;;;;6.53;3.50;;;28.60;99.90;;;;;;5058183;28;20077;-82
2023/08/16 09:37:56;;;;;;;5.43;3.08;;;28.80;99.90;;;;;;5049751;28;20035;-79
2023/08/16 09:40:22;;;;;;;6.93;2.85;;;28.90;99.90;;;;;;5057686;28;20107;-79
2023/08/16 09:42:47;;;;;;;6.45;3.20;;;28.80;99.90;;;;;;5056576;28;20062;-82
2023/08/16 09:45:13;;;;;;;5.03;3.33;;;28.60;99.90;;;;;;5056022;28;20108;-78
2023/08/16 09:47:45;;;;;;;4.78;3.00;;;28.50;99.90;;;;;;5044505;28;20514;-82
2023/08/16 09:50:12;;;;;;;4.28;2.92;;;28.30;99.90;;;;;;5048885;28;20094;-82
2023/08/16 09:52:38;;;;;;;7.05;3.97;;;27.90;99.90;;;;;;5044817;28;20047;-80
2023/08/16 09:55:04;;;;;;;6.00;3.70;;;27.70;99.90;;;;;;5053371;28;20025;-80
2023/08/16 09:57:30;;;;;;;10.45;3.78;;;27.70;99.90;;;;;;5046283;28;20033;-82
2023/08/16 09:59:56;;;;;;;4.65;3.40;;;27.90;99.90;;;;;;5057008;28;20020;-81
2023/08/16 10:02:22;;;;;;;7.20;3.60;;;27.90;99.90;;;;;;5055056;28;20469;-77
2023/08/16 10:04:48;;;;;;;5.22;2.88;;;28.00;99.90;;;;;;5060201;28;20028;-82
2023/08/16 10:07:15;;;;;;;10.85;3.47;;;28.40;99.90;;;;;;5058633;28;20029;-77
2023/08/16 10:09:44;;;;;;;6.57;3.97;;;28.70;99.90;;;;;;5051010;28;20037;-77
2023/08/16 10:12:10;;;;;;;4.97;3.38;;;29.00;99.90;;;;;;5048468;28;20052;-80
2023/08/16 10:14:40;;;;;;;7.57;3.60;;;29.00;99.90;;;;;;5061007;28;20021;-78
2023/08/16 10:17:07;;;;;;;5.13;3.47;;;29.20;99.90;;;;;;5059047;28;20477;-76
2023/08/16 10:19:34;;;;;;;6.20;3.22;;;29.30;99.90;;;;;;5062845;28;20758;-78
2023/08/16 10:22:09;;;;;;;7.82;3.75;;;29.30;99.90;;;;;;5065675;28;20115;-77
2023/08/16 10:24:35;;;;;;;4.40;3.40;;;29.00;99.90;;;;;;5061882;28;20067;-77
2023/08/16 10:27:03;;;;;;;6.18;3.60;;;28.80;99.90;;;;;;5058442;28;20049;-77
2023/08/16 10:29:36;;;;;;;5.20;3.40;;;28.70;99.90;;;;;;5057512;28;20057;-80
2023/08/16 10:32:07;;;;;;;4.60;3.35;;;28.70;99.90;;;;;;5057248;28;20486;-79
2023/08/16 10:34:34;;;;;;;5.18;3.33;;;28.90;99.90;;;;;;5058225;28;20028;-77
2023/08/16 10:37:00;;;;;;;6.95;3.13;;;29.20;99.90;;;;;;5062902;28;20044;-76
2023/08/16 10:39:25;;;;;;;9.25;3.65;;;29.40;99.90;;;;;;5058580;28;20037;-78
2023/08/16 10:42:02;;;;;;;7.40;3.20;;;29.50;99.90;;;;;;5060129;28;20112;-77
2023/08/16 10:44:28;;;;;;;5.13;3.25;;;29.50;99.90;;;;;;5060626;28;20037;-79
2023/08/16 10:46:53;;;;;;;6.53;3.22;;;29.60;99.90;;;;;;5059740;28;20017;-79
2023/08/16 10:49:20;;;;;;;6.07;3.17;;;29.80;99.90;;;;;;5059937;28;20017;-79
2023/08/16 10:51:47;;;;;;;5.38;3.28;;;29.90;99.90;;;;;;5059349;28;20033;-79
2023/08/16 10:54:13;;;;;;;5.47;2.92;;;30.00;99.90;;;;;;5066681;28;20017;-79
2023/08/16 10:56:47;;;;;;;4.82;2.78;;;29.80;99.90;;;;;;5069041;28;20071;-81
2023/08/16 10:59:14;;;;;;;5.75;3.45;;;29.60;99.90;;;;;;5074558;28;20577;-81
2023/08/16 11:01:47;;;;;;;6.30;3.00;;;29.30;99.90;;;;;;5067908;28;20041;-78
2023/08/16 11:04:13;;;;;;;7.68;3.50;;;29.20;99.90;;;;;;5068287;28;20434;-79
2023/08/16 11:06:40;;;;;;;5.18;3.28;;;29.20;99.90;;;;;;5055238;28;20033;-81
2023/08/16 11:09:06;;;;;;;7.22;3.42;;;29.30;99.90;;;;;;5069515;28;20021;-80
2023/08/16 11:11:33;;;;;;;6.00;3.30;;;29.40;99.90;;;;;;5068430;28;20111;-77
2023/08/16 11:14:00;;;;;;;7.88;3.35;;;29.50;99.90;;;;;;5068299;28;20032;-80
2023/08/16 11:16:26;;;;;;;5.53;3.47;;;29.60;99.90;;;;;;5068700;28;20114;-78
2023/08/16 11:18:52;;;;;;;7.03;3.20;;;29.40;99.90;;;;;;5069728;28;20509;-83
2023/08/16 11:21:19;;;;;;;6.28;3.50;;;29.30;99.90;;;;;;5050510;28;20055;-81
2023/08/16 11:23:44;;;;;;;6.75;3.38;;;29.30;99.90;;;;;;5069116;28;20409;-78
2023/08/16 11:26:11;;;;;;;5.47;3.33;;;29.40;99.90;;;;;;5070000;28;20029;-79
2023/08/16 11:28:38;;;;;;;12.95;3.65;;;29.40;99.90;;;;;;5069047;28;20564;-77
2023/08/16 11:31:06;;;;;;;5.72;3.25;;;29.40;99.90;;;;;;5067203;28;20017;-83
2023/08/16 11:33:32;;;;;;;5.68;3.47;;;29.60;99.90;;;;;;5066215;28;20060;-82
2023/08/16 11:36:04;;;;;;;7.78;4.22;;;29.40;99.90;;;;;;5063730;28;20079;-80
2023/08/16 11:38:30;;;;;;;4.70;3.38;;;29.40;99.90;;;;;;5063018;28;20025;-80
2023/08/16 11:40:56;;;;;;;5.88;3.47;;;29.70;99.90;;;;;;5067586;28;20031;-79
2023/08/16 11:43:29;;;;;;;4.47;3.05;;;29.70;99.90;;;;;;5064669;28;20032;-77
2023/08/16 11:45:57;;;;;;;5.97;3.15;;;29.50;99.90;;;;;;5061532;28;20024;-82
2023/08/16 11:48:28;;;;;;;6.35;3.60;;;29.80;99.90;;;;;;5058393;28;20032;-80
2023/08/16 11:50:54;;;;;;;5.60;2.90;;;29.90;99.90;;;;;;5069648;28;20073;-80
2023/08/16 11:53:21;;;;;;;5.90;3.08;;;29.80;99.90;;;;;;5064597;28;20021;-79
2023/08/16 11:56:00;;;;;;;5.50;3.25;;;29.90;99.90;;;;;;5050601;28;20480;-79
2023/08/16 11:58:26;;;;;;;6.17;3.47;;;29.70;99.90;;;;;;5064728;28;20029;-79
2023/08/16 12:00:53;;;;;;;7.70;3.80;;;29.60;99.90;;;;;;5064406;28;20063;-77
2023/08/16 12:03:19;;;;;;;7.00;3.92;;;29.40;99.90;;;;;;5060971;28;20033;-83
2023/08/16 12:05:48;;;;;;;5.00;3.38;;;29.40;99.90;;;;;;5063852;28;20024;-78
2023/08/16 12:08:21;;;;;;;5.47;3.70;;;29.30;99.90;;;;;;5061426;28;20049;-81
2023/08/16 12:10:56;;;;;;;4.60;3.33;;;29.20;99.90;;;;;;5048785;28;20435;-83
2023/08/16 12:13:23;;;;;;;4.60;3.60;;;29.00;99.90;;;;;;5063461;28;20036;-78
2023/08/16 12:15:49;;;;;;;3.92;3.20;;;28.90;99.90;;;;;;5067188;28;20025;-80
2023/08/16 12:18:17;;;;;;;6.05;3.55;;;28.60;99.90;;;;;;5072528;28;20121;-80
2023/08/16 12:20:49;;;;;;;4.50;3.38;;;28.60;99.90;;;;;;5060889;28;20529;-76
2023/08/16 12:23:18;;;;;;;5.57;3.03;;;28.50;99.90;;;;;;5071226;28;20044;-76
2023/08/16 12:25:45;;;;;;;4.50;3.17;;;28.40;99.90;;;;;;5068614;28;20516;-77
2023/08/16 12:28:10;;;;;;;7.03;3.88;;;28.50;99.90;;;;;;5071294;28;20480;-76
2023/08/16 12:30:36;;;;;;;7.78;3.70;;;28.60;99.90;;;;;;5068338;28;20018;-76
2023/08/16 12:33:03;;;;;;;5.45;3.72;;;28.60;99.90;;;;;;5072386;28;20017;-75
2023/08/16 12:35:29;;;;;;;4.78;3.60;;;28.50;99.90;;;;;;5066838;28;20116;-77
2023/08/16 12:37:55;;;;;;;6.72;3.72;;;28.70;99.90;;;;;;5072472;28;20060;-75
2023/08/16 12:40:24;;;;;;;8.52;4.00;;;28.80;99.90;;;;;;5068299;28;20112;-77
2023/08/16 12:42:50;;;;;;;5.55;4.20;;;28.60;99.90;;;;;;5072113;28;20065;-77